createdAt,value
2023-06-06T00:10:01.304Z,96023.22
2023-06-06T00:20:09.891Z,96027.69
2023-06-06T00:30:14.339Z,96033.53
2023-06-06T00:40:16.809Z,96036.56
2023-06-06T00:50:22.472Z,96031.34
2023-06-06T01:00:25.041Z,96028.94
2023-06-06T01:10:29.527Z,96037.78
2023-06-06T01:20:32.503Z,96029.00
2023-06-06T01:30:36.377Z,96025.75
2023-06-06T01:40:39.273Z,96025.91
2023-06-06T01:50:43.363Z,96030.34
2023-06-06T02:00:46.033Z,96035.84
2023-06-06T02:10:49.834Z,96042.66
2023-06-06T02:20:52.329Z,96038.44
2023-06-06T02:30:56.218Z,96040.94
2023-06-06T02:40:58.720Z,96052.56
2023-06-06T02:51:02.553Z,96045.38
2023-06-06T03:01:05.162Z,96048.66
2023-06-06T03:11:11.230Z,96058.63
2023-06-06T03:21:13.939Z,96062.72
2023-06-06T03:31:17.940Z,96071.16
2023-06-06T03:41:20.584Z,96072.50
2023-06-06T03:51:24.407Z,96082.78
2023-06-06T04:01:32.276Z,96089.53
2023-06-06T04:11:36.689Z,96094.91
2023-06-06T04:21:39.154Z,96103.81
2023-06-06T04:31:43.361Z,96097.59
2023-06-06T04:51:54.332Z,96109.19
2023-06-06T05:01:57.367Z,96105.13
2023-06-06T05:12:01.418Z,96109.41
2023-06-06T05:22:04.135Z,96114.19
2023-06-06T05:32:08.767Z,96122.56
2023-06-06T05:42:11.429Z,96127.19
2023-06-06T05:52:15.382Z,96122.81
2023-06-06T06:02:18.145Z,96136.03
2023-06-06T06:12:22.130Z,96138.66
2023-06-06T06:22:24.896Z,96156.94
2023-06-06T06:32:28.701Z,96155.03
2023-06-06T06:42:31.176Z,96160.59
2023-06-06T06:52:36.602Z,96170.19
2023-06-06T07:02:40.692Z,96173.81
2023-06-06T07:12:47.409Z,96181.28
2023-06-06T07:22:50.750Z,96179.84
2023-06-06T07:32:54.627Z,96168.69
2023-06-06T07:42:58.564Z,96175.25
2023-06-06T07:53:02.538Z,96171.00
2023-06-06T08:03:06.986Z,96167.78
2023-06-06T08:13:12.323Z,96175.13
2023-06-06T08:23:14.778Z,96175.81
2023-06-06T08:33:18.566Z,96177.91
2023-06-06T08:43:21.775Z,96186.38
2023-06-06T08:53:25.875Z,96187.91
2023-06-06T09:03:35.101Z,96190.06
2023-06-06T09:13:43.262Z,96186.13
2023-06-06T09:23:46.456Z,96178.50
2023-06-06T09:33:51.161Z,96180.94
2023-06-06T09:43:53.621Z,96179.22
2023-06-06T09:53:57.395Z,96171.94
2023-06-06T10:04:00.567Z,96165.25
2023-06-06T10:14:06.649Z,96168.16
2023-06-06T10:24:09.968Z,96161.63
2023-06-06T10:34:16.654Z,96156.03
2023-06-06T10:44:20.878Z,96146.69
2023-06-06T10:54:29.152Z,96143.53
2023-06-06T11:04:31.621Z,96137.59
2023-06-06T11:14:55.383Z,96129.19
2023-06-06T11:24:59.602Z,96125.78
2023-06-06T11:35:08.470Z,96121.28
2023-06-06T11:45:14.625Z,96119.81
2023-06-06T11:55:18.759Z,96113.28
2023-06-06T12:05:22.340Z,96116.09
2023-06-06T12:15:28.993Z,96106.03
2023-06-06T12:25:32.475Z,96104.50
2023-06-06T12:35:36.330Z,96111.00
2023-06-06T12:45:39.466Z,96093.41
2023-06-06T12:55:44.392Z,96092.34
2023-06-06T13:05:51.975Z,96091.66
2023-06-06T13:15:56.049Z,96087.09
2023-06-06T13:25:58.789Z,96072.94
2023-06-06T13:36:02.793Z,96080.28
2023-06-06T13:46:05.343Z,96075.09
2023-06-06T13:56:09.719Z,96060.34
2023-06-06T14:06:12.475Z,96047.56
2023-06-06T14:16:17.124Z,96052.66
2023-06-06T14:26:21.241Z,96039.56
2023-06-06T14:36:25.285Z,96044.13
2023-06-06T14:46:29.396Z,96031.44
2023-06-06T14:56:33.380Z,96036.16
2023-06-06T15:06:37.119Z,96040.78
2023-06-06T15:16:41.099Z,96031.81
2023-06-06T15:26:43.570Z,96025.28
2023-06-06T15:36:47.386Z,96021.16
2023-06-06T15:46:49.902Z,96036.66
2023-06-06T15:56:53.741Z,96043.50
2023-06-06T16:06:56.306Z,96024.84
2023-06-06T16:17:02.440Z,96017.19
2023-06-06T16:27:05.181Z,96020.06
2023-06-06T16:37:09.264Z,96017.97
2023-06-06T16:47:12.078Z,96022.53
2023-06-06T16:57:15.857Z,96014.41
2023-06-06T17:07:18.382Z,96018.63
2023-06-06T17:17:22.414Z,96023.13
2023-06-06T17:27:24.993Z,96027.31
2023-06-06T17:37:28.800Z,96034.16
2023-06-06T17:47:31.259Z,96043.41
2023-06-06T17:57:35.021Z,96043.25
2023-06-06T18:07:37.849Z,96041.00
2023-06-06T18:17:41.802Z,96052.72
2023-06-06T18:27:44.370Z,96061.50
2023-06-06T18:37:48.147Z,96059.22
2023-06-06T18:47:51.901Z,96061.69
2023-06-06T18:57:55.981Z,96080.59
2023-06-06T19:08:00.153Z,96081.53
2023-06-06T19:18:08.263Z,96097.22
2023-06-06T19:28:13.425Z,96102.66
2023-06-06T19:38:17.460Z,96111.84
2023-06-06T19:48:20.080Z,96119.50
2023-06-06T19:58:23.904Z,96129.06
2023-06-06T20:08:26.804Z,96127.88
2023-06-06T20:18:30.697Z,96128.56
2023-06-06T20:28:34.790Z,96126.56
2023-06-06T20:38:39.451Z,96129.06
2023-06-06T20:48:41.882Z,96138.53
2023-06-06T20:58:45.675Z,96126.97
2023-06-06T21:08:48.209Z,96124.81
2023-06-06T21:18:51.962Z,96133.91
2023-06-06T21:28:54.492Z,96140.84
2023-06-06T21:38:58.536Z,96127.47
2023-06-06T21:49:01.014Z,96127.25
2023-06-06T21:59:05.194Z,96121.44
2023-06-06T22:09:13.235Z,96132.09
2023-06-06T22:19:17.033Z,96130.00
2023-06-06T22:29:19.519Z,96148.16
2023-06-06T22:39:23.364Z,96143.03
2023-06-06T22:49:25.853Z,96141.78
2023-06-06T22:59:29.670Z,96140.19
2023-06-06T23:09:32.209Z,96139.28
2023-06-06T23:19:36.019Z,96136.00
2023-06-06T23:29:38.494Z,96133.88
2023-06-06T23:39:42.298Z,96128.38
2023-06-06T23:49:44.806Z,96134.72
2023-06-06T23:59:48.701Z,96132.59
